sensor_id;sensor_type;location;lat;lon;timestamp;P1;durP1;ratioP1;P2;durP2;ratioP2
61907;SDS011;47864;52.526;19.672;2022-09-09T00:00:16;13.50;;;5.80;;
61907;SDS011;47864;52.526;19.672;2022-09-09T00:04:28;15.88;;;8.07;;
61907;SDS011;47864;52.526;19.672;2022-09-09T00:06:36;16.33;;;7.40;;
61907;SDS011;47864;52.526;19.672;2022-09-09T00:09:12;13.80;;;6.47;;
61907;SDS011;47864;52.526;19.672;2022-09-09T00:11:18;13.48;;;6.32;;
61907;SDS011;47864;52.526;19.672;2022-09-09T00:13:37;12.20;;;6.45;;
61907;SDS011;47864;52.526;19.672;2022-09-09T00:18:21;11.98;;;5.93;;
61907;SDS011;47864;52.526;19.672;2022-09-09T00:20:47;11.20;;;6.20;;
61907;SDS011;47864;52.526;19.672;2022-09-09T00:23:05;11.82;;;6.40;;
61907;SDS011;47864;52.526;19.672;2022-09-09T00:25:19;12.98;;;6.45;;
61907;SDS011;47864;52.526;19.672;2022-09-09T00:27:49;13.07;;;6.35;;
61907;SDS011;47864;52.526;19.672;2022-09-09T00:30:34;13.63;;;6.70;;
61907;SDS011;47864;52.526;19.672;2022-09-09T00:32:20;14.80;;;6.43;;
61907;SDS011;47864;52.526;19.672;2022-09-09T00:34:23;12.52;;;6.45;;
61907;SDS011;47864;52.526;19.672;2022-09-09T00:36:27;9.90;;;6.40;;
61907;SDS011;47864;52.526;19.672;2022-09-09T00:40:53;13.77;;;7.03;;
61907;SDS011;47864;52.526;19.672;2022-09-09T00:43:16;11.95;;;6.97;;
61907;SDS011;47864;52.526;19.672;2022-09-09T00:47:53;11.00;;;5.90;;
61907;SDS011;47864;52.526;19.672;2022-09-09T00:54:33;10.45;;;6.03;;
61907;SDS011;47864;52.526;19.672;2022-09-09T00:56:53;12.60;;;6.72;;
61907;SDS011;47864;52.526;19.672;2022-09-09T00:59:12;10.10;;;5.85;;
61907;SDS011;47864;52.526;19.672;2022-09-09T01:01:17;11.70;;;6.47;;
61907;SDS011;47864;52.526;19.672;2022-09-09T01:03:31;12.18;;;5.70;;
61907;SDS011;47864;52.526;19.672;2022-09-09T01:05:41;10.23;;;6.13;;
61907;SDS011;47864;52.526;19.672;2022-09-09T01:07:50;9.98;;;6.45;;
61907;SDS011;47864;52.526;19.672;2022-09-09T01:09:58;10.32;;;6.60;;
61907;SDS011;47864;52.526;19.672;2022-09-09T01:12:15;12.43;;;6.65;;
61907;SDS011;47864;52.526;19.672;2022-09-09T01:16:36;12.88;;;6.68;;
61907;SDS011;47864;52.526;19.672;2022-09-09T01:18:46;10.63;;;5.93;;
61907;SDS011;47864;52.526;19.672;2022-09-09T01:21:01;10.60;;;6.50;;
61907;SDS011;47864;52.526;19.672;2022-09-09T01:23:15;12.00;;;6.75;;
61907;SDS011;47864;52.526;19.672;2022-09-09T01:28:16;11.30;;;6.78;;
61907;SDS011;47864;52.526;19.672;2022-09-09T01:30:20;15.63;;;6.72;;
61907;SDS011;47864;52.526;19.672;2022-09-09T01:35:00;11.75;;;6.00;;
61907;SDS011;47864;52.526;19.672;2022-09-09T01:37:06;10.80;;;6.55;;
61907;SDS011;47864;52.526;19.672;2022-09-09T01:39:09;16.05;;;7.65;;
61907;SDS011;47864;52.526;19.672;2022-09-09T01:41:12;13.07;;;6.68;;
61907;SDS011;47864;52.526;19.672;2022-09-09T01:43:14;15.68;;;7.18;;
61907;SDS011;47864;52.526;19.672;2022-09-09T01:45:16;14.20;;;7.78;;
61907;SDS011;47864;52.526;19.672;2022-09-09T01:47:18;13.75;;;6.95;;
61907;SDS011;47864;52.526;19.672;2022-09-09T01:49:19;16.25;;;7.47;;
61907;SDS011;47864;52.526;19.672;2022-09-09T01:51:21;15.68;;;7.57;;
61907;SDS011;47864;52.526;19.672;2022-09-09T01:53:24;11.43;;;7.10;;
61907;SDS011;47864;52.526;19.672;2022-09-09T01:55:30;12.40;;;7.10;;
61907;SDS011;47864;52.526;19.672;2022-09-09T02:00:09;13.85;;;7.90;;
61907;SDS011;47864;52.526;19.672;2022-09-09T02:02:23;12.23;;;6.82;;
61907;SDS011;47864;52.526;19.672;2022-09-09T02:06:41;11.57;;;7.30;;
61907;SDS011;47864;52.526;19.672;2022-09-09T02:08:47;12.63;;;7.20;;
61907;SDS011;47864;52.526;19.672;2022-09-09T02:10:55;13.57;;;7.72;;
61907;SDS011;47864;52.526;19.672;2022-09-09T02:13:04;13.65;;;7.85;;
61907;SDS011;47864;52.526;19.672;2022-09-09T02:15:14;15.18;;;7.32;;
61907;SDS011;47864;52.526;19.672;2022-09-09T02:17:29;12.63;;;7.28;;
61907;SDS011;47864;52.526;19.672;2022-09-09T02:19:37;14.45;;;8.40;;
61907;SDS011;47864;52.526;19.672;2022-09-09T02:21:44;18.08;;;8.48;;
61907;SDS011;47864;52.526;19.672;2022-09-09T02:23:48;13.18;;;7.38;;
61907;SDS011;47864;52.526;19.672;2022-09-09T02:27:54;13.23;;;7.70;;
61907;SDS011;47864;52.526;19.672;2022-09-09T02:29:57;17.95;;;8.07;;
61907;SDS011;47864;52.526;19.672;2022-09-09T02:32:03;15.38;;;8.05;;
61907;SDS011;47864;52.526;19.672;2022-09-09T02:34:07;15.15;;;7.75;;
61907;SDS011;47864;52.526;19.672;2022-09-09T02:38:14;14.07;;;7.95;;
61907;SDS011;47864;52.526;19.672;2022-09-09T02:40:18;15.38;;;7.60;;
61907;SDS011;47864;52.526;19.672;2022-09-09T02:42:20;20.55;;;9.65;;
61907;SDS011;47864;52.526;19.672;2022-09-09T02:44:22;14.40;;;8.25;;
61907;SDS011;47864;52.526;19.672;2022-09-09T02:46:32;15.70;;;8.65;;
61907;SDS011;47864;52.526;19.672;2022-09-09T02:49:11;15.50;;;7.75;;
61907;SDS011;47864;52.526;19.672;2022-09-09T02:51:08;15.23;;;8.23;;
61907;SDS011;47864;52.526;19.672;2022-09-09T02:53:17;13.85;;;8.60;;
61907;SDS011;47864;52.526;19.672;2022-09-09T02:57:59;16.30;;;9.30;;
61907;SDS011;47864;52.526;19.672;2022-09-09T03:00:01;17.02;;;8.23;;
61907;SDS011;47864;52.526;19.672;2022-09-09T03:04:06;19.70;;;8.90;;
61907;SDS011;47864;52.526;19.672;2022-09-09T03:06:08;15.00;;;8.68;;
61907;SDS011;47864;52.526;19.672;2022-09-09T03:08:10;15.85;;;9.27;;
61907;SDS011;47864;52.526;19.672;2022-09-09T03:10:13;16.70;;;9.27;;
61907;SDS011;47864;52.526;19.672;2022-09-09T03:12:15;15.27;;;8.75;;
61907;SDS011;47864;52.526;19.672;2022-09-09T03:14:16;18.48;;;9.15;;
61907;SDS011;47864;52.526;19.672;2022-09-09T03:16:18;17.83;;;8.90;;
61907;SDS011;47864;52.526;19.672;2022-09-09T03:18:20;18.90;;;9.80;;
61907;SDS011;47864;52.526;19.672;2022-09-09T03:20:26;16.05;;;9.10;;
61907;SDS011;47864;52.526;19.672;2022-09-09T03:22:29;17.88;;;9.70;;
61907;SDS011;47864;52.526;19.672;2022-09-09T03:24:31;18.60;;;9.65;;
61907;SDS011;47864;52.526;19.672;2022-09-09T03:26:33;17.67;;;10.13;;
61907;SDS011;47864;52.526;19.672;2022-09-09T03:28:35;14.68;;;9.75;;
61907;SDS011;47864;52.526;19.672;2022-09-09T03:30:37;16.10;;;9.68;;
61907;SDS011;47864;52.526;19.672;2022-09-09T03:32:38;19.38;;;9.77;;
61907;SDS011;47864;52.526;19.672;2022-09-09T03:34:40;18.80;;;9.98;;
61907;SDS011;47864;52.526;19.672;2022-09-09T03:36:42;17.65;;;10.38;;
61907;SDS011;47864;52.526;19.672;2022-09-09T03:38:43;15.52;;;9.32;;
61907;SDS011;47864;52.526;19.672;2022-09-09T03:40:52;17.05;;;9.02;;
61907;SDS011;47864;52.526;19.672;2022-09-09T03:42:55;20.08;;;9.45;;
61907;SDS011;47864;52.526;19.672;2022-09-09T03:44:57;18.42;;;9.10;;
61907;SDS011;47864;52.526;19.672;2022-09-09T03:46:58;17.35;;;9.00;;
61907;SDS011;47864;52.526;19.672;2022-09-09T03:49:00;17.50;;;9.55;;
61907;SDS011;47864;52.526;19.672;2022-09-09T03:51:02;16.35;;;9.73;;
61907;SDS011;47864;52.526;19.672;2022-09-09T03:53:04;18.90;;;9.25;;
61907;SDS011;47864;52.526;19.672;2022-09-09T03:55:06;15.57;;;9.60;;
61907;SDS011;47864;52.526;19.672;2022-09-09T03:57:09;19.48;;;10.13;;
61907;SDS011;47864;52.526;19.672;2022-09-09T03:59:11;18.42;;;10.70;;
61907;SDS011;47864;52.526;19.672;2022-09-09T04:01:13;18.45;;;9.77;;
61907;SDS011;47864;52.526;19.672;2022-09-09T04:03:16;16.17;;;10.02;;
61907;SDS011;47864;52.526;19.672;2022-09-09T04:05:18;16.27;;;10.10;;
61907;SDS011;47864;52.526;19.672;2022-09-09T04:07:19;21.27;;;10.82;;
61907;SDS011;47864;52.526;19.672;2022-09-09T04:09:22;19.63;;;11.13;;
61907;SDS011;47864;52.526;19.672;2022-09-09T04:11:24;17.40;;;10.73;;
61907;SDS011;47864;52.526;19.672;2022-09-09T04:13:26;21.90;;;10.85;;
61907;SDS011;47864;52.526;19.672;2022-09-09T04:15:28;18.80;;;10.93;;
61907;SDS011;47864;52.526;19.672;2022-09-09T04:17:30;18.73;;;11.32;;
61907;SDS011;47864;52.526;19.672;2022-09-09T04:19:32;24.00;;;11.32;;
61907;SDS011;47864;52.526;19.672;2022-09-09T04:21:34;22.13;;;10.90;;
61907;SDS011;47864;52.526;19.672;2022-09-09T04:23:36;21.70;;;11.10;;
61907;SDS011;47864;52.526;19.672;2022-09-09T04:25:38;18.15;;;10.85;;
61907;SDS011;47864;52.526;19.672;2022-09-09T04:27:45;22.92;;;11.02;;
61907;SDS011;47864;52.526;19.672;2022-09-09T04:29:47;18.77;;;10.77;;
61907;SDS011;47864;52.526;19.672;2022-09-09T04:31:48;17.42;;;9.80;;
61907;SDS011;47864;52.526;19.672;2022-09-09T04:33:50;19.25;;;10.35;;
61907;SDS011;47864;52.526;19.672;2022-09-09T04:35:53;16.67;;;10.23;;
61907;SDS011;47864;52.526;19.672;2022-09-09T04:37:55;19.33;;;10.68;;
61907;SDS011;47864;52.526;19.672;2022-09-09T04:39:56;21.20;;;10.57;;
61907;SDS011;47864;52.526;19.672;2022-09-09T04:41:58;22.90;;;10.85;;
61907;SDS011;47864;52.526;19.672;2022-09-09T04:44:00;17.73;;;10.77;;
61907;SDS011;47864;52.526;19.672;2022-09-09T04:46:02;23.42;;;12.50;;
61907;SDS011;47864;52.526;19.672;2022-09-09T04:48:05;19.47;;;10.47;;
61907;SDS011;47864;52.526;19.672;2022-09-09T04:50:07;20.60;;;10.93;;
61907;SDS011;47864;52.526;19.672;2022-09-09T04:52:09;17.73;;;11.07;;
61907;SDS011;47864;52.526;19.672;2022-09-09T04:54:11;23.10;;;12.02;;
61907;SDS011;47864;52.526;19.672;2022-09-09T04:56:14;20.63;;;11.43;;
61907;SDS011;47864;52.526;19.672;2022-09-09T04:58:17;18.27;;;11.23;;
61907;SDS011;47864;52.526;19.672;2022-09-09T05:00:19;21.92;;;11.20;;
61907;SDS011;47864;52.526;19.672;2022-09-09T05:02:20;22.70;;;11.93;;
61907;SDS011;47864;52.526;19.672;2022-09-09T05:04:22;25.48;;;12.20;;
61907;SDS011;47864;52.526;19.672;2022-09-09T05:06:24;22.70;;;12.50;;
61907;SDS011;47864;52.526;19.672;2022-09-09T05:08:26;17.60;;;11.57;;
61907;SDS011;47864;52.526;19.672;2022-09-09T05:10:28;20.48;;;11.70;;
61907;SDS011;47864;52.526;19.672;2022-09-09T05:12:30;20.05;;;11.52;;
61907;SDS011;47864;52.526;19.672;2022-09-09T05:14:32;18.58;;;11.32;;
61907;SDS011;47864;52.526;19.672;2022-09-09T05:16:33;22.13;;;12.10;;
61907;SDS011;47864;52.526;19.672;2022-09-09T05:18:35;20.80;;;12.20;;
61907;SDS011;47864;52.526;19.672;2022-09-09T05:20:37;21.60;;;11.68;;
61907;SDS011;47864;52.526;19.672;2022-09-09T05:22:39;23.02;;;12.38;;
61907;SDS011;47864;52.526;19.672;2022-09-09T05:24:41;21.33;;;12.07;;
61907;SDS011;47864;52.526;19.672;2022-09-09T05:26:43;21.25;;;11.60;;
61907;SDS011;47864;52.526;19.672;2022-09-09T05:28:45;21.80;;;11.52;;
61907;SDS011;47864;52.526;19.672;2022-09-09T05:30:54;22.15;;;12.23;;
61907;SDS011;47864;52.526;19.672;2022-09-09T05:32:57;23.23;;;12.55;;
61907;SDS011;47864;52.526;19.672;2022-09-09T05:34:59;24.75;;;13.05;;
61907;SDS011;47864;52.526;19.672;2022-09-09T05:37:01;22.98;;;11.70;;
61907;SDS011;47864;52.526;19.672;2022-09-09T05:39:02;24.48;;;12.90;;
61907;SDS011;47864;52.526;19.672;2022-09-09T05:41:05;22.02;;;12.52;;
61907;SDS011;47864;52.526;19.672;2022-09-09T05:43:07;26.63;;;13.20;;
61907;SDS011;47864;52.526;19.672;2022-09-09T05:45:09;23.90;;;12.77;;
61907;SDS011;47864;52.526;19.672;2022-09-09T05:47:11;22.25;;;12.23;;
61907;SDS011;47864;52.526;19.672;2022-09-09T05:49:12;25.23;;;13.40;;
61907;SDS011;47864;52.526;19.672;2022-09-09T05:51:15;26.27;;;13.30;;
61907;SDS011;47864;52.526;19.672;2022-09-09T05:53:19;24.10;;;14.13;;
61907;SDS011;47864;52.526;19.672;2022-09-09T05:55:21;26.88;;;12.63;;
61907;SDS011;47864;52.526;19.672;2022-09-09T05:57:23;26.05;;;14.05;;
61907;SDS011;47864;52.526;19.672;2022-09-09T05:59:25;27.23;;;13.60;;
61907;SDS011;47864;52.526;19.672;2022-09-09T06:03:30;26.98;;;14.02;;
61907;SDS011;47864;52.526;19.672;2022-09-09T06:05:32;24.08;;;13.55;;
61907;SDS011;47864;52.526;19.672;2022-09-09T06:07:34;31.30;;;14.48;;
61907;SDS011;47864;52.526;19.672;2022-09-09T06:09:35;26.17;;;14.30;;
61907;SDS011;47864;52.526;19.672;2022-09-09T06:11:38;30.50;;;14.00;;
61907;SDS011;47864;52.526;19.672;2022-09-09T06:13:41;30.48;;;14.50;;
61907;SDS011;47864;52.526;19.672;2022-09-09T06:15:50;34.15;;;15.00;;
61907;SDS011;47864;52.526;19.672;2022-09-09T06:17:55;32.22;;;15.07;;
61907;SDS011;47864;52.526;19.672;2022-09-09T06:19:56;30.00;;;15.25;;
61907;SDS011;47864;52.526;19.672;2022-09-09T06:21:58;33.45;;;14.60;;
61907;SDS011;47864;52.526;19.672;2022-09-09T06:24:00;29.40;;;14.48;;
61907;SDS011;47864;52.526;19.672;2022-09-09T06:26:06;36.45;;;15.65;;
61907;SDS011;47864;52.526;19.672;2022-09-09T06:28:12;34.08;;;14.88;;
61907;SDS011;47864;52.526;19.672;2022-09-09T06:30:14;36.15;;;14.63;;
61907;SDS011;47864;52.526;19.672;2022-09-09T06:32:15;32.05;;;14.18;;
61907;SDS011;47864;52.526;19.672;2022-09-09T06:34:17;31.23;;;15.18;;
61907;SDS011;47864;52.526;19.672;2022-09-09T06:36:20;31.80;;;14.50;;
61907;SDS011;47864;52.526;19.672;2022-09-09T06:38:31;33.10;;;14.77;;
61907;SDS011;47864;52.526;19.672;2022-09-09T06:40:33;35.33;;;15.18;;
61907;SDS011;47864;52.526;19.672;2022-09-09T06:42:35;34.35;;;14.85;;
61907;SDS011;47864;52.526;19.672;2022-09-09T06:44:37;32.38;;;14.63;;
61907;SDS011;47864;52.526;19.672;2022-09-09T06:46:39;30.45;;;15.73;;
61907;SDS011;47864;52.526;19.672;2022-09-09T06:48:41;34.25;;;15.05;;
61907;SDS011;47864;52.526;19.672;2022-09-09T06:50:44;39.92;;;16.60;;
61907;SDS011;47864;52.526;19.672;2022-09-09T06:52:46;36.10;;;15.07;;
61907;SDS011;47864;52.526;19.672;2022-09-09T06:54:48;33.15;;;15.65;;
61907;SDS011;47864;52.526;19.672;2022-09-09T06:56:50;36.42;;;15.77;;
61907;SDS011;47864;52.526;19.672;2022-09-09T06:58:52;32.80;;;15.25;;
61907;SDS011;47864;52.526;19.672;2022-09-09T07:01:06;41.40;;;15.93;;
61907;SDS011;47864;52.526;19.672;2022-09-09T07:03:09;35.03;;;15.85;;
61907;SDS011;47864;52.526;19.672;2022-09-09T07:05:11;38.50;;;16.60;;
61907;SDS011;47864;52.526;19.672;2022-09-09T07:07:13;32.08;;;14.43;;
61907;SDS011;47864;52.526;19.672;2022-09-09T07:09:15;33.50;;;15.93;;
61907;SDS011;47864;52.526;19.672;2022-09-09T07:11:18;39.55;;;16.52;;
61907;SDS011;47864;52.526;19.672;2022-09-09T07:13:24;40.70;;;18.27;;
61907;SDS011;47864;52.526;19.672;2022-09-09T07:15:27;44.47;;;21.65;;
61907;SDS011;47864;52.526;19.672;2022-09-09T07:17:28;38.65;;;19.58;;
61907;SDS011;47864;52.526;19.672;2022-09-09T07:19:30;47.00;;;22.50;;
61907;SDS011;47864;52.526;19.672;2022-09-09T07:21:32;47.70;;;22.40;;
61907;SDS011;47864;52.526;19.672;2022-09-09T07:23:34;45.08;;;21.25;;
61907;SDS011;47864;52.526;19.672;2022-09-09T07:25:36;32.92;;;17.85;;
61907;SDS011;47864;52.526;19.672;2022-09-09T07:27:38;33.70;;;17.10;;
61907;SDS011;47864;52.526;19.672;2022-09-09T07:29:40;34.30;;;16.13;;
61907;SDS011;47864;52.526;19.672;2022-09-09T07:31:42;39.78;;;17.52;;
61907;SDS011;47864;52.526;19.672;2022-09-09T07:33:44;37.67;;;17.52;;
61907;SDS011;47864;52.526;19.672;2022-09-09T07:35:46;36.92;;;16.60;;
61907;SDS011;47864;52.526;19.672;2022-09-09T07:37:48;42.58;;;16.98;;
61907;SDS011;47864;52.526;19.672;2022-09-09T07:39:51;36.50;;;15.98;;
61907;SDS011;47864;52.526;19.672;2022-09-09T07:41:53;41.97;;;16.50;;
61907;SDS011;47864;52.526;19.672;2022-09-09T07:43:55;38.80;;;15.68;;
61907;SDS011;47864;52.526;19.672;2022-09-09T07:45:57;41.90;;;15.73;;
61907;SDS011;47864;52.526;19.672;2022-09-09T07:48:00;38.05;;;17.13;;
61907;SDS011;47864;52.526;19.672;2022-09-09T07:50:02;36.90;;;17.50;;
61907;SDS011;47864;52.526;19.672;2022-09-09T07:52:04;43.65;;;17.67;;
61907;SDS011;47864;52.526;19.672;2022-09-09T07:54:12;38.13;;;16.38;;
61907;SDS011;47864;52.526;19.672;2022-09-09T07:56:16;38.22;;;17.02;;
61907;SDS011;47864;52.526;19.672;2022-09-09T07:58:19;36.92;;;16.20;;
61907;SDS011;47864;52.526;19.672;2022-09-09T08:00:21;41.88;;;17.08;;
61907;SDS011;47864;52.526;19.672;2022-09-09T08:02:23;38.70;;;16.50;;
61907;SDS011;47864;52.526;19.672;2022-09-09T08:04:26;42.05;;;17.33;;
61907;SDS011;47864;52.526;19.672;2022-09-09T08:06:28;35.58;;;16.27;;
61907;SDS011;47864;52.526;19.672;2022-09-09T08:08:32;36.30;;;16.40;;
61907;SDS011;47864;52.526;19.672;2022-09-09T08:10:38;33.28;;;16.45;;
61907;SDS011;47864;52.526;19.672;2022-09-09T08:12:47;42.67;;;16.23;;
61907;SDS011;47864;52.526;19.672;2022-09-09T08:15:10;37.58;;;15.85;;
61907;SDS011;47864;52.526;19.672;2022-09-09T08:17:12;36.60;;;14.85;;
61907;SDS011;47864;52.526;19.672;2022-09-09T08:19:14;35.95;;;15.23;;
61907;SDS011;47864;52.526;19.672;2022-09-09T08:21:17;43.13;;;16.35;;
61907;SDS011;47864;52.526;19.672;2022-09-09T08:23:23;36.25;;;16.60;;
61907;SDS011;47864;52.526;19.672;2022-09-09T08:25:30;36.15;;;15.27;;
61907;SDS011;47864;52.526;19.672;2022-09-09T08:27:31;34.25;;;15.57;;
61907;SDS011;47864;52.526;19.672;2022-09-09T08:29:33;33.28;;;15.52;;
61907;SDS011;47864;52.526;19.672;2022-09-09T08:31:36;32.58;;;16.10;;
61907;SDS011;47864;52.526;19.672;2022-09-09T08:33:40;42.13;;;16.17;;
61907;SDS011;47864;52.526;19.672;2022-09-09T08:35:49;33.97;;;16.75;;
61907;SDS011;47864;52.526;19.672;2022-09-09T08:37:53;44.67;;;17.60;;
61907;SDS011;47864;52.526;19.672;2022-09-09T08:39:55;38.00;;;16.00;;
61907;SDS011;47864;52.526;19.672;2022-09-09T08:42:16;37.05;;;17.58;;
61907;SDS011;47864;52.526;19.672;2022-09-09T08:44:57;38.20;;;15.38;;
61907;SDS011;47864;52.526;19.672;2022-09-09T08:52:21;41.35;;;17.27;;
61907;SDS011;47864;52.526;19.672;2022-09-09T08:54:27;38.45;;;15.98;;
61907;SDS011;47864;52.526;19.672;2022-09-09T08:56:52;39.20;;;15.35;;
61907;SDS011;47864;52.526;19.672;2022-09-09T08:58:54;32.50;;;15.88;;
61907;SDS011;47864;52.526;19.672;2022-09-09T09:05:40;31.00;;;14.50;;
61907;SDS011;47864;52.526;19.672;2022-09-09T09:08:07;32.60;;;15.38;;
61907;SDS011;47864;52.526;19.672;2022-09-09T09:12:43;31.67;;;14.00;;
61907;SDS011;47864;52.526;19.672;2022-09-09T09:14:47;31.58;;;14.43;;
61907;SDS011;47864;52.526;19.672;2022-09-09T09:16:54;34.47;;;15.27;;
61907;SDS011;47864;52.526;19.672;2022-09-09T09:18:57;27.00;;;14.07;;
61907;SDS011;47864;52.526;19.672;2022-09-09T09:21:08;27.30;;;14.50;;
61907;SDS011;47864;52.526;19.672;2022-09-09T09:23:27;33.92;;;15.35;;
61907;SDS011;47864;52.526;19.672;2022-09-09T09:25:37;33.63;;;15.00;;
61907;SDS011;47864;52.526;19.672;2022-09-09T09:28:02;29.50;;;14.35;;
61907;SDS011;47864;52.526;19.672;2022-09-09T09:30:15;34.80;;;14.95;;
61907;SDS011;47864;52.526;19.672;2022-09-09T09:32:30;33.30;;;16.33;;
61907;SDS011;47864;52.526;19.672;2022-09-09T09:34:35;27.38;;;15.02;;
61907;SDS011;47864;52.526;19.672;2022-09-09T09:36:43;33.00;;;14.23;;
61907;SDS011;47864;52.526;19.672;2022-09-09T09:38:58;30.10;;;14.38;;
61907;SDS011;47864;52.526;19.672;2022-09-09T09:43:34;34.35;;;14.88;;
61907;SDS011;47864;52.526;19.672;2022-09-09T09:45:41;31.13;;;14.23;;
61907;SDS011;47864;52.526;19.672;2022-09-09T09:48:04;28.20;;;14.27;;
61907;SDS011;47864;52.526;19.672;2022-09-09T09:50:18;29.70;;;14.10;;
61907;SDS011;47864;52.526;19.672;2022-09-09T09:52:22;40.10;;;16.00;;
61907;SDS011;47864;52.526;19.672;2022-09-09T09:54:29;33.60;;;15.50;;
61907;SDS011;47864;52.526;19.672;2022-09-09T09:56:34;34.95;;;16.05;;
61907;SDS011;47864;52.526;19.672;2022-09-09T09:58:39;33.05;;;16.23;;
61907;SDS011;47864;52.526;19.672;2022-09-09T10:00:52;32.30;;;15.15;;
61907;SDS011;47864;52.526;19.672;2022-09-09T10:02:55;32.42;;;16.40;;
61907;SDS011;47864;52.526;19.672;2022-09-09T10:05:03;34.05;;;15.30;;
61907;SDS011;47864;52.526;19.672;2022-09-09T10:07:18;33.30;;;15.30;;
61907;SDS011;47864;52.526;19.672;2022-09-09T10:32:20;33.92;;;16.35;;
61907;SDS011;47864;52.526;19.672;2022-09-09T10:35:02;37.45;;;17.30;;
61907;SDS011;47864;52.526;19.672;2022-09-09T10:37:06;33.70;;;16.40;;
61907;SDS011;47864;52.526;19.672;2022-09-09T10:39:39;36.65;;;17.65;;
61907;SDS011;47864;52.526;19.672;2022-09-09T10:51:22;35.13;;;17.23;;
61907;SDS011;47864;52.526;19.672;2022-09-09T10:53:35;36.00;;;17.08;;
61907;SDS011;47864;52.526;19.672;2022-09-09T10:56:11;37.42;;;16.95;;
61907;SDS011;47864;52.526;19.672;2022-09-09T10:59:03;32.33;;;16.70;;
61907;SDS011;47864;52.526;19.672;2022-09-09T11:01:03;31.25;;;16.77;;
61907;SDS011;47864;52.526;19.672;2022-09-09T11:03:17;38.00;;;17.52;;
61907;SDS011;47864;52.526;19.672;2022-09-09T11:05:27;34.28;;;17.00;;
61907;SDS011;47864;52.526;19.672;2022-09-09T11:09:47;33.57;;;16.87;;
61907;SDS011;47864;52.526;19.672;2022-09-09T11:11:56;35.92;;;18.40;;
61907;SDS011;47864;52.526;19.672;2022-09-09T11:14:03;32.58;;;16.73;;
61907;SDS011;47864;52.526;19.672;2022-09-09T11:16:29;32.50;;;16.77;;
61907;SDS011;47864;52.526;19.672;2022-09-09T11:18:36;30.77;;;16.42;;
61907;SDS011;47864;52.526;19.672;2022-09-09T11:20:41;36.80;;;17.10;;
61907;SDS011;47864;52.526;19.672;2022-09-09T11:23:04;32.25;;;16.88;;
61907;SDS011;47864;52.526;19.672;2022-09-09T11:25:16;34.45;;;17.80;;
61907;SDS011;47864;52.526;19.672;2022-09-09T11:37:27;31.08;;;17.38;;
61907;SDS011;47864;52.526;19.672;2022-09-09T11:39:55;34.17;;;18.10;;
61907;SDS011;47864;52.526;19.672;2022-09-09T11:44:25;35.05;;;18.83;;
61907;SDS011;47864;52.526;19.672;2022-09-09T11:46:36;35.17;;;17.55;;
61907;SDS011;47864;52.526;19.672;2022-09-09T11:50:43;35.10;;;18.48;;
61907;SDS011;47864;52.526;19.672;2022-09-09T11:52:45;31.17;;;16.52;;
61907;SDS011;47864;52.526;19.672;2022-09-09T11:54:49;33.40;;;17.25;;
61907;SDS011;47864;52.526;19.672;2022-09-09T11:56:51;32.33;;;18.77;;
61907;SDS011;47864;52.526;19.672;2022-09-09T11:58:54;33.88;;;17.92;;
61907;SDS011;47864;52.526;19.672;2022-09-09T12:01:13;33.80;;;18.00;;
61907;SDS011;47864;52.526;19.672;2022-09-09T12:03:48;34.97;;;18.15;;
61907;SDS011;47864;52.526;19.672;2022-09-09T12:05:56;35.67;;;19.00;;
61907;SDS011;47864;52.526;19.672;2022-09-09T12:07:59;35.03;;;18.25;;
61907;SDS011;47864;52.526;19.672;2022-09-09T12:12:28;33.65;;;18.40;;
61907;SDS011;47864;52.526;19.672;2022-09-09T12:14:54;33.45;;;18.77;;
61907;SDS011;47864;52.526;19.672;2022-09-09T12:16:58;37.05;;;18.95;;
61907;SDS011;47864;52.526;19.672;2022-09-09T12:19:30;33.03;;;18.25;;
61907;SDS011;47864;52.526;19.672;2022-09-09T12:21:46;37.33;;;19.85;;
61907;SDS011;47864;52.526;19.672;2022-09-09T12:24:01;34.15;;;19.00;;
61907;SDS011;47864;52.526;19.672;2022-09-09T12:31:12;34.70;;;18.25;;
61907;SDS011;47864;52.526;19.672;2022-09-09T12:33:21;33.13;;;18.02;;
61907;SDS011;47864;52.526;19.672;2022-09-09T12:35:24;34.20;;;18.50;;
61907;SDS011;47864;52.526;19.672;2022-09-09T12:37:36;30.13;;;18.13;;
61907;SDS011;47864;52.526;19.672;2022-09-09T12:39:45;34.03;;;18.50;;
61907;SDS011;47864;52.526;19.672;2022-09-09T12:41:53;29.95;;;18.02;;
61907;SDS011;47864;52.526;19.672;2022-09-09T12:44:10;31.77;;;18.13;;
61907;SDS011;47864;52.526;19.672;2022-09-09T12:46:16;29.95;;;18.33;;
61907;SDS011;47864;52.526;19.672;2022-09-09T12:50:33;31.70;;;19.25;;
61907;SDS011;47864;52.526;19.672;2022-09-09T12:52:38;26.38;;;17.00;;
61907;SDS011;47864;52.526;19.672;2022-09-09T12:54:42;29.80;;;16.98;;
61907;SDS011;47864;52.526;19.672;2022-09-09T12:56:46;26.90;;;16.83;;
61907;SDS011;47864;52.526;19.672;2022-09-09T12:58:50;27.02;;;15.70;;
61907;SDS011;47864;52.526;19.672;2022-09-09T13:00:54;27.98;;;16.55;;
61907;SDS011;47864;52.526;19.672;2022-09-09T13:02:58;28.08;;;16.20;;
61907;SDS011;47864;52.526;19.672;2022-09-09T13:07:37;26.73;;;15.60;;
61907;SDS011;47864;52.526;19.672;2022-09-09T13:09:39;26.45;;;17.90;;
61907;SDS011;47864;52.526;19.672;2022-09-09T13:11:42;24.42;;;16.08;;
61907;SDS011;47864;52.526;19.672;2022-09-09T13:13:51;26.48;;;16.23;;
61907;SDS011;47864;52.526;19.672;2022-09-09T13:15:58;25.33;;;14.63;;
61907;SDS011;47864;52.526;19.672;2022-09-09T13:18:06;22.35;;;15.10;;
61907;SDS011;47864;52.526;19.672;2022-09-09T13:20:17;24.48;;;14.48;;
61907;SDS011;47864;52.526;19.672;2022-09-09T13:24:32;23.85;;;14.43;;
61907;SDS011;47864;52.526;19.672;2022-09-09T13:26:35;25.95;;;16.88;;
61907;SDS011;47864;52.526;19.672;2022-09-09T13:28:37;27.48;;;15.60;;
61907;SDS011;47864;52.526;19.672;2022-09-09T13:30:39;24.67;;;15.60;;
61907;SDS011;47864;52.526;19.672;2022-09-09T13:32:41;21.55;;;15.32;;
61907;SDS011;47864;52.526;19.672;2022-09-09T13:34:52;20.92;;;14.13;;
61907;SDS011;47864;52.526;19.672;2022-09-09T13:37:04;24.40;;;15.02;;
61907;SDS011;47864;52.526;19.672;2022-09-09T13:39:15;25.53;;;15.53;;
61907;SDS011;47864;52.526;19.672;2022-09-09T13:41:22;24.73;;;15.07;;
61907;SDS011;47864;52.526;19.672;2022-09-09T13:43:26;21.33;;;14.23;;
61907;SDS011;47864;52.526;19.672;2022-09-09T13:47:35;25.42;;;14.25;;
61907;SDS011;47864;52.526;19.672;2022-09-09T13:49:37;24.65;;;14.95;;
61907;SDS011;47864;52.526;19.672;2022-09-09T13:51:41;27.65;;;16.25;;
61907;SDS011;47864;52.526;19.672;2022-09-09T13:53:45;54.92;;;26.23;;
61907;SDS011;47864;52.526;19.672;2022-09-09T13:55:47;38.40;;;19.63;;
61907;SDS011;47864;52.526;19.672;2022-09-09T13:58:00;38.40;;;19.73;;
61907;SDS011;47864;52.526;19.672;2022-09-09T14:00:03;24.15;;;14.82;;
61907;SDS011;47864;52.526;19.672;2022-09-09T14:04:08;116.22;;;41.70;;
61907;SDS011;47864;52.526;19.672;2022-09-09T14:06:12;314.45;;;82.88;;
61907;SDS011;47864;52.526;19.672;2022-09-09T14:08:16;37.45;;;25.38;;
61907;SDS011;47864;52.526;19.672;2022-09-09T14:10:28;24.83;;;14.07;;
61907;SDS011;47864;52.526;19.672;2022-09-09T14:12:30;21.83;;;14.40;;